createdAt,value
2023-02-19T00:02:28.029Z,13.30
2023-02-19T00:05:56.109Z,12.40
2023-02-19T00:09:23.476Z,9.70
2023-02-19T00:12:52.315Z,13.00
2023-02-19T00:16:22.450Z,11.60
2023-02-19T00:19:49.967Z,14.30
2023-02-19T00:23:17.744Z,11.70
2023-02-19T00:26:46.890Z,15.00
2023-02-19T00:30:15.251Z,13.70
2023-02-19T00:33:42.288Z,12.80
2023-02-19T00:37:09.137Z,10.90
2023-02-19T00:40:35.793Z,8.30
2023-02-19T00:44:16.736Z,15.40
2023-02-19T00:47:44.460Z,24.60
2023-02-19T00:51:12.072Z,15.80
2023-02-19T00:54:38.970Z,14.20
2023-02-19T00:58:08.404Z,16.00
2023-02-19T01:01:35.197Z,14.30
2023-02-19T01:05:04.517Z,15.50
2023-02-19T01:08:32.896Z,14.90
2023-02-19T01:12:00.802Z,18.00
2023-02-19T01:15:27.948Z,16.00
2023-02-19T01:18:54.860Z,15.40
2023-02-19T01:22:22.169Z,9.80
2023-02-19T01:25:49.154Z,14.40
2023-02-19T01:29:15.843Z,12.40
2023-02-19T01:32:45.085Z,18.90
2023-02-19T01:36:13.786Z,12.20
2023-02-19T01:39:41.120Z,12.00
2023-02-19T01:43:16.521Z,14.10
2023-02-19T01:46:44.689Z,17.70
2023-02-19T01:50:15.065Z,15.80
2023-02-19T01:53:48.950Z,15.30
2023-02-19T01:57:18.706Z,10.50
2023-02-19T02:00:46.717Z,10.40
2023-02-19T02:04:16.509Z,16.90
2023-02-19T02:08:02.024Z,18.10
2023-02-19T02:11:30.985Z,11.90
2023-02-19T02:14:59.636Z,12.40
2023-02-19T02:18:36.885Z,10.50
2023-02-19T02:22:19.854Z,15.30
2023-02-19T02:26:19.746Z,13.00
2023-02-19T02:30:08.907Z,11.80
2023-02-19T02:33:43.979Z,13.40
2023-02-19T02:37:14.576Z,12.00
2023-02-19T02:40:44.659Z,20.80
2023-02-19T02:44:12.610Z,11.90
2023-02-19T02:47:43.378Z,20.10
2023-02-19T02:51:22.181Z,10.20
2023-02-19T02:55:04.915Z,13.40
2023-02-19T02:58:35.824Z,16.40
2023-02-19T03:02:14.805Z,13.30
2023-02-19T03:05:54.612Z,10.60
2023-02-19T03:09:30.478Z,11.90
2023-02-19T03:13:33.491Z,17.70
2023-02-19T03:17:24.032Z,10.80
2023-02-19T03:20:56.515Z,12.50
2023-02-19T03:24:44.417Z,14.20
2023-02-19T03:28:16.480Z,12.50
2023-02-19T03:31:47.759Z,15.90
2023-02-19T03:35:18.991Z,13.20
2023-02-19T03:38:50.660Z,16.10
2023-02-19T03:42:31.897Z,11.40
2023-02-19T03:46:08.523Z,23.50
2023-02-19T03:49:44.029Z,11.50
2023-02-19T03:53:19.821Z,13.30
2023-02-19T03:56:54.657Z,13.60
2023-02-19T04:00:29.925Z,12.60
2023-02-19T04:04:03.905Z,12.70
2023-02-19T04:07:34.801Z,15.10
2023-02-19T04:11:02.002Z,18.40
2023-02-19T04:14:39.714Z,16.90
2023-02-19T04:18:11.628Z,13.10
2023-02-19T04:21:41.853Z,14.90
2023-02-19T04:25:10.199Z,12.10
2023-02-19T04:28:37.793Z,10.70
2023-02-19T04:32:05.231Z,16.00
2023-02-19T04:35:32.933Z,9.20
2023-02-19T04:39:00.124Z,13.20
2023-02-19T04:42:27.516Z,11.20
2023-02-19T04:45:55.508Z,13.60
2023-02-19T04:49:22.377Z,12.50
2023-02-19T04:52:49.541Z,13.70
2023-02-19T04:56:17.886Z,15.00
2023-02-19T04:59:45.090Z,13.30
2023-02-19T05:03:11.953Z,13.20
2023-02-19T05:06:39.588Z,12.80
2023-02-19T05:10:06.289Z,10.00
2023-02-19T05:13:35.591Z,12.30
2023-02-19T05:17:02.510Z,14.60
2023-02-19T05:20:29.270Z,13.20
2023-02-19T05:23:56.048Z,11.50
2023-02-19T05:27:23.486Z,14.20
2023-02-19T05:30:52.512Z,11.20
2023-02-19T05:34:19.260Z,15.90
2023-02-19T05:37:45.723Z,8.80
2023-02-19T05:41:15.994Z,16.30
2023-02-19T05:44:42.594Z,15.90
2023-02-19T05:48:11.879Z,12.10
2023-02-19T05:51:38.677Z,12.20
2023-02-19T05:55:06.252Z,10.30
2023-02-19T05:58:33.574Z,16.70
2023-02-19T06:02:00.477Z,17.70
2023-02-19T06:05:27.713Z,13.80
2023-02-19T06:08:55.821Z,23.10
2023-02-19T06:12:22.638Z,19.00
2023-02-19T06:15:49.716Z,16.40
2023-02-19T06:19:16.672Z,18.70
2023-02-19T06:22:43.262Z,15.30
2023-02-19T06:26:15.001Z,14.10
2023-02-19T06:29:42.051Z,11.80
2023-02-19T06:33:09.077Z,13.40
2023-02-19T06:36:36.107Z,13.50
2023-02-19T06:40:04.684Z,9.80
2023-02-19T06:43:32.939Z,14.90
2023-02-19T06:46:59.721Z,11.50
2023-02-19T06:50:26.958Z,10.20
2023-02-19T06:53:53.785Z,15.70
2023-02-19T06:57:21.091Z,9.80
2023-02-19T07:00:48.770Z,13.60
2023-02-19T07:04:17.597Z,18.30
2023-02-19T07:07:47.003Z,13.70
2023-02-19T07:11:13.816Z,15.20
2023-02-19T07:14:41.213Z,15.70
2023-02-19T07:18:10.675Z,16.20
2023-02-19T07:21:39.244Z,17.00
2023-02-19T07:25:06.436Z,12.90
2023-02-19T07:28:34.259Z,17.70
2023-02-19T07:32:01.225Z,16.90
2023-02-19T07:35:28.575Z,15.10
2023-02-19T07:39:00.518Z,19.00
2023-02-19T07:42:28.012Z,16.40
2023-02-19T07:45:55.955Z,15.70
2023-02-19T07:49:24.810Z,15.40
2023-02-19T07:52:51.755Z,15.50
2023-02-19T07:56:19.917Z,16.00
2023-02-19T07:59:47.244Z,14.30
2023-02-19T08:03:16.689Z,11.50
2023-02-19T08:06:45.804Z,15.40
2023-02-19T08:10:36.042Z,19.20
2023-02-19T08:14:04.507Z,14.20
2023-02-19T08:17:33.642Z,14.80
2023-02-19T08:21:08.975Z,12.30
2023-02-19T08:24:38.464Z,14.90
2023-02-19T08:28:06.656Z,16.10
2023-02-19T08:31:35.420Z,14.60
2023-02-19T08:35:04.694Z,10.30
2023-02-19T08:38:34.974Z,16.00
2023-02-19T08:42:01.846Z,12.90
2023-02-19T08:45:29.282Z,15.50
2023-02-19T08:48:56.457Z,14.00
2023-02-19T08:52:23.606Z,20.20
2023-02-19T08:55:51.654Z,13.20
2023-02-19T08:59:20.699Z,15.10
2023-02-19T09:02:50.920Z,19.00
2023-02-19T09:06:23.786Z,13.20
2023-02-19T09:09:51.252Z,10.60
2023-02-19T09:13:17.930Z,6.60
2023-02-19T09:16:44.778Z,12.00
2023-02-19T09:20:15.479Z,15.50
2023-02-19T09:23:42.546Z,13.80
2023-02-19T09:27:10.354Z,16.10
2023-02-19T09:30:38.586Z,14.50
2023-02-19T09:34:08.787Z,14.60
2023-02-19T09:37:36.350Z,14.50
2023-02-19T09:41:16.256Z,10.40
2023-02-19T09:44:45.945Z,13.60
2023-02-19T09:48:14.980Z,12.90
2023-02-19T09:51:45.101Z,15.60
2023-02-19T09:55:20.252Z,15.10
2023-02-19T09:58:50.614Z,17.00
2023-02-19T10:02:21.203Z,14.10
2023-02-19T10:05:49.004Z,10.80
2023-02-19T10:09:26.964Z,7.60
2023-02-19T10:12:57.549Z,14.60
2023-02-19T10:16:27.554Z,13.70
2023-02-19T10:19:55.752Z,10.70
2023-02-19T10:23:22.774Z,14.20
2023-02-19T10:26:51.862Z,14.00
2023-02-19T10:30:26.250Z,8.90
2023-02-19T10:33:55.050Z,8.60
2023-02-19T10:37:21.931Z,8.60
2023-02-19T10:40:50.012Z,9.70
2023-02-19T10:44:22.092Z,10.20
2023-02-19T10:47:56.028Z,9.30
2023-02-19T10:51:37.367Z,8.70
2023-02-19T10:55:22.669Z,8.60
2023-02-19T10:58:49.461Z,7.10
2023-02-19T11:02:22.160Z,9.80
2023-02-19T11:06:01.796Z,9.70
2023-02-19T11:09:34.148Z,8.80
2023-02-19T11:13:04.713Z,8.80
2023-02-19T11:16:42.637Z,7.00
2023-02-19T11:20:16.766Z,4.60
2023-02-19T11:23:49.525Z,7.40
2023-02-19T11:27:23.075Z,7.40
2023-02-19T11:30:52.677Z,9.50
2023-02-19T11:34:35.949Z,6.40
2023-02-19T11:38:03.715Z,8.00
2023-02-19T11:41:57.534Z,6.80
2023-02-19T11:45:38.586Z,5.30
2023-02-19T11:49:19.258Z,12.70
2023-02-19T11:52:58.103Z,10.40
2023-02-19T11:56:34.793Z,8.90
2023-02-19T12:00:17.487Z,5.60
2023-02-19T12:04:05.017Z,5.50
2023-02-19T12:07:56.599Z,4.40
2023-02-19T12:11:40.137Z,5.40
2023-02-19T12:15:26.773Z,4.00
2023-02-19T12:19:16.660Z,4.70
2023-02-19T12:22:53.312Z,6.10
2023-02-19T12:26:28.670Z,5.60
2023-02-19T12:30:18.529Z,4.80
2023-02-19T12:34:02.532Z,6.00
2023-02-19T12:37:42.856Z,4.00
2023-02-19T12:41:23.335Z,5.10
2023-02-19T12:44:54.948Z,9.10
2023-02-19T12:48:34.344Z,4.80
2023-02-19T12:52:08.545Z,11.10
2023-02-19T12:55:43.335Z,4.10
2023-02-19T12:59:16.791Z,4.30
2023-02-19T13:02:48.235Z,6.50
2023-02-19T13:06:26.134Z,6.00
2023-02-19T13:10:01.059Z,4.80
2023-02-19T13:13:33.829Z,4.50
2023-02-19T13:17:09.902Z,4.30
2023-02-19T13:20:41.622Z,6.30
2023-02-19T13:24:12.991Z,5.60
2023-02-19T13:27:59.516Z,5.40
2023-02-19T13:31:47.187Z,4.30
2023-02-19T13:35:30.410Z,4.50
2023-02-19T13:39:01.288Z,7.00
2023-02-19T13:42:33.931Z,6.50
2023-02-19T13:46:04.396Z,4.10
2023-02-19T13:49:43.680Z,6.10
2023-02-19T13:53:53.103Z,3.20
2023-02-19T13:57:32.412Z,4.20
2023-02-19T14:01:01.592Z,3.40
2023-02-19T14:04:49.224Z,2.70
2023-02-19T14:08:53.074Z,3.50
2023-02-19T14:12:32.081Z,2.80
2023-02-19T14:15:59.739Z,5.00
2023-02-19T14:19:59.785Z,4.40
2023-02-19T14:23:39.165Z,2.30
2023-02-19T14:27:06.566Z,3.00
2023-02-19T14:30:45.101Z,5.20
2023-02-19T14:34:22.608Z,5.20
2023-02-19T14:37:51.377Z,4.30
2023-02-19T14:41:20.778Z,3.40
2023-02-19T14:44:53.728Z,4.50
2023-02-19T14:48:26.048Z,3.60
2023-02-19T14:51:57.013Z,3.70
2023-02-19T14:55:28.688Z,6.50
2023-02-19T15:02:27.599Z,2.90
2023-02-19T15:05:59.921Z,6.50
2023-02-19T15:09:36.552Z,3.70
2023-02-19T15:13:06.598Z,3.90
2023-02-19T15:16:35.983Z,6.20
2023-02-19T15:20:06.768Z,8.80
2023-02-19T15:23:36.188Z,9.70
2023-02-19T15:27:03.510Z,6.10
2023-02-19T15:30:31.615Z,6.00
2023-02-19T15:33:59.022Z,6.80
2023-02-19T15:37:27.327Z,3.30
2023-02-19T15:40:56.222Z,5.50
2023-02-19T15:44:33.870Z,3.40
2023-02-19T15:48:10.520Z,6.10
2023-02-19T15:51:42.972Z,5.30
2023-02-19T15:55:35.718Z,6.20
2023-02-19T15:59:08.103Z,9.90
2023-02-19T16:02:36.168Z,10.70
2023-02-19T16:06:06.860Z,11.40
2023-02-19T16:09:38.605Z,16.10
2023-02-19T16:13:09.536Z,10.00
2023-02-19T16:16:42.438Z,8.00
2023-02-19T16:20:21.700Z,8.80
2023-02-19T16:23:54.933Z,10.70
2023-02-19T16:27:32.777Z,12.80
2023-02-19T16:31:04.883Z,4.90
2023-02-19T16:34:47.191Z,6.10
2023-02-19T16:38:17.957Z,7.00
2023-02-19T16:42:19.657Z,5.70
2023-02-19T16:45:47.498Z,10.30
2023-02-19T16:49:15.059Z,6.00
2023-02-19T16:52:54.234Z,5.20
2023-02-19T16:56:23.305Z,10.30
2023-02-19T16:59:50.532Z,5.70
2023-02-19T17:03:20.618Z,9.60
2023-02-19T17:06:48.407Z,10.70
2023-02-19T17:10:18.726Z,7.60
2023-02-19T17:13:47.391Z,4.70
2023-02-19T17:17:13.750Z,7.20
2023-02-19T17:20:42.069Z,10.60
2023-02-19T17:24:09.552Z,5.10
2023-02-19T17:27:36.570Z,4.20
2023-02-19T17:31:04.029Z,6.90
2023-02-19T17:34:31.026Z,7.30
2023-02-19T17:37:58.182Z,7.90
2023-02-19T17:41:24.989Z,13.70
2023-02-19T17:44:53.890Z,11.90
2023-02-19T17:48:21.099Z,11.60
2023-02-19T17:51:48.825Z,14.90
2023-02-19T17:55:18.687Z,11.10
2023-02-19T17:58:46.541Z,14.50
2023-02-19T18:02:13.327Z,17.20
2023-02-19T18:05:41.473Z,18.00
2023-02-19T18:09:08.764Z,23.70
2023-02-19T18:12:35.729Z,25.70
2023-02-19T18:16:03.046Z,23.40
2023-02-19T18:19:32.919Z,22.80
2023-02-19T18:23:00.231Z,19.30
2023-02-19T18:26:28.453Z,26.30
2023-02-19T18:29:59.490Z,35.80
2023-02-19T18:33:29.810Z,23.60
2023-02-19T18:36:57.655Z,17.20
2023-02-19T18:40:26.820Z,27.20
2023-02-19T18:43:54.205Z,24.20
2023-02-19T18:47:25.432Z,17.70
2023-02-19T18:50:55.928Z,18.60
2023-02-19T18:54:30.054Z,13.40
2023-02-19T18:57:59.885Z,14.80
2023-02-19T19:01:27.270Z,16.60
2023-02-19T19:04:58.829Z,14.70
2023-02-19T19:08:26.025Z,20.70
2023-02-19T19:11:55.812Z,14.00
2023-02-19T19:15:24.955Z,16.00
2023-02-19T19:18:52.737Z,17.20
2023-02-19T19:22:23.077Z,15.90
2023-02-19T19:25:50.676Z,15.30
2023-02-19T19:29:19.363Z,12.90
2023-02-19T19:32:53.731Z,15.40
2023-02-19T19:36:24.420Z,15.70
2023-02-19T19:39:52.264Z,18.50
2023-02-19T19:43:21.365Z,12.30
2023-02-19T19:46:48.995Z,13.60
2023-02-19T19:50:18.384Z,8.70
2023-02-19T19:53:53.283Z,14.10
2023-02-19T19:57:22.612Z,10.30
2023-02-19T20:00:49.630Z,14.80
2023-02-19T20:04:17.730Z,19.10
2023-02-19T20:07:44.893Z,11.20
2023-02-19T20:11:12.092Z,19.20
2023-02-19T20:14:44.738Z,13.60
2023-02-19T20:18:13.410Z,12.60
2023-02-19T20:21:40.332Z,10.30
2023-02-19T20:25:09.466Z,12.90
2023-02-19T20:28:47.069Z,17.40
2023-02-19T20:32:19.204Z,17.50
2023-02-19T20:35:49.693Z,16.30
2023-02-19T20:39:18.801Z,12.20
2023-02-19T20:42:52.906Z,10.80
2023-02-19T20:46:20.294Z,9.90
2023-02-19T20:49:53.744Z,13.80
2023-02-19T20:53:21.030Z,15.90
2023-02-19T20:56:53.566Z,12.40
2023-02-19T21:00:23.545Z,14.20
2023-02-19T21:03:52.394Z,15.00
2023-02-19T21:07:29.984Z,14.50
2023-02-19T21:11:00.894Z,17.10
2023-02-19T21:14:28.155Z,13.20
2023-02-19T21:17:55.816Z,10.10
2023-02-19T21:21:26.659Z,11.50
2023-02-19T21:24:54.649Z,10.60
2023-02-19T21:28:24.194Z,10.80
2023-02-19T21:31:58.126Z,15.90
2023-02-19T21:35:26.289Z,14.90
2023-02-19T21:38:53.803Z,9.90
2023-02-19T21:42:22.250Z,10.30
2023-02-19T21:45:49.265Z,8.00
2023-02-19T21:49:17.360Z,11.60
2023-02-19T21:52:46.819Z,7.20
2023-02-19T21:56:16.267Z,11.30
2023-02-19T21:59:45.184Z,12.00
2023-02-19T22:03:18.081Z,10.40
2023-02-19T22:06:47.893Z,14.10
2023-02-19T22:10:19.244Z,8.40
2023-02-19T22:13:46.892Z,10.10
2023-02-19T22:17:15.708Z,10.50
2023-02-19T22:20:43.141Z,9.40
2023-02-19T22:24:19.806Z,13.10
2023-02-19T22:27:49.587Z,11.10
2023-02-19T22:31:17.874Z,11.50
2023-02-19T22:34:44.782Z,10.90
2023-02-19T22:38:12.322Z,12.20
2023-02-19T22:41:45.482Z,11.00
2023-02-19T22:45:14.936Z,12.30
2023-02-19T22:48:42.867Z,13.90
2023-02-19T22:52:17.177Z,9.20
2023-02-19T22:55:45.458Z,10.90
2023-02-19T22:59:13.959Z,11.40
2023-02-19T23:02:42.855Z,11.30
2023-02-19T23:06:12.407Z,10.00
2023-02-19T23:09:40.664Z,9.60
2023-02-19T23:13:12.376Z,10.70
2023-02-19T23:16:39.626Z,9.70
2023-02-19T23:20:08.368Z,11.60
2023-02-19T23:23:36.944Z,15.30
2023-02-19T23:27:03.950Z,11.90
2023-02-19T23:30:30.902Z,10.40
2023-02-19T23:33:57.854Z,8.70
2023-02-19T23:37:25.071Z,11.60
2023-02-19T23:40:52.645Z,13.30
2023-02-19T23:44:20.891Z,10.80
2023-02-19T23:47:48.432Z,10.40
2023-02-19T23:51:15.745Z,7.00
2023-02-19T23:54:43.574Z,8.30
2023-02-19T23:58:10.496Z,13.00
